createdAt,value
2018-12-08T00:01:49.540Z,93.30
2018-12-08T00:04:18.442Z,93.67
2018-12-08T00:06:47.632Z,92.97
2018-12-08T00:09:16.547Z,91.63
2018-12-08T00:11:46.237Z,93.20
2018-12-08T00:14:15.440Z,81.63
2018-12-08T00:16:44.304Z,85.67
2018-12-08T00:19:13.415Z,95.33
2018-12-08T00:21:42.304Z,76.40
2018-12-08T00:24:11.128Z,95.13
2018-12-08T00:26:40.188Z,81.83
2018-12-08T00:29:09.387Z,79.27
2018-12-08T00:31:45.126Z,80.53
2018-12-08T00:34:14.396Z,80.83
2018-12-08T00:36:43.632Z,85.27
2018-12-08T00:39:12.739Z,76.43
2018-12-08T00:41:41.935Z,79.50
2018-12-08T00:44:10.731Z,84.10
2018-12-08T00:46:39.515Z,73.93
2018-12-08T00:49:08.395Z,79.53
2018-12-08T00:51:37.351Z,80.23
2018-12-08T00:54:07.736Z,70.60
2018-12-08T00:56:37.404Z,71.53
2018-12-08T00:59:06.287Z,76.70
2018-12-08T01:01:35.527Z,72.60
2018-12-08T01:04:04.722Z,83.47
2018-12-08T01:06:34.239Z,74.63
2018-12-08T01:09:03.535Z,89.03
2018-12-08T01:11:32.727Z,76.50
2018-12-08T01:14:01.545Z,74.13
2018-12-08T01:16:30.535Z,74.97
2018-12-08T01:18:59.703Z,65.43
2018-12-08T01:21:28.552Z,78.87
2018-12-08T01:23:57.588Z,73.80
2018-12-08T01:26:26.519Z,79.20
2018-12-08T01:28:55.343Z,73.23
2018-12-08T01:31:24.201Z,79.60
2018-12-08T01:33:53.279Z,67.30
2018-12-08T01:36:22.111Z,64.30
2018-12-08T01:38:51.359Z,61.40
2018-12-08T01:41:20.199Z,56.77
2018-12-08T01:43:49.343Z,76.93
2018-12-08T01:46:18.099Z,68.37
2018-12-08T01:48:47.862Z,58.27
2018-12-08T01:51:17.152Z,52.93
2018-12-08T01:53:46.243Z,50.83
2018-12-08T01:56:15.574Z,50.47
2018-12-08T01:58:44.961Z,44.23
2018-12-08T02:01:13.878Z,59.80
2018-12-08T02:03:43.032Z,55.37
2018-12-08T02:06:12.127Z,52.70
2018-12-08T02:08:41.632Z,48.13
2018-12-08T02:11:11.079Z,52.53
2018-12-08T02:13:39.362Z,49.10
2018-12-08T02:16:08.603Z,43.43
2018-12-08T02:18:37.446Z,51.17
2018-12-08T02:21:06.671Z,50.40
2018-12-08T02:23:35.519Z,52.83
2018-12-08T02:26:04.476Z,52.57
2018-12-08T02:28:33.675Z,56.27
2018-12-08T02:31:03.083Z,51.77
2018-12-08T02:33:32.935Z,54.50
2018-12-08T02:36:01.793Z,62.00
2018-12-08T02:38:30.840Z,66.43
2018-12-08T02:40:59.978Z,61.03
2018-12-08T02:43:28.762Z,67.83
2018-12-08T02:45:57.980Z,61.03
2018-12-08T02:48:27.157Z,52.37
2018-12-08T02:50:56.019Z,54.10
2018-12-08T02:53:25.211Z,58.67
2018-12-08T02:55:54.449Z,53.73
2018-12-08T02:58:23.649Z,56.83
2018-12-08T03:00:52.570Z,58.77
2018-12-08T03:03:21.707Z,57.33
2018-12-08T03:05:50.827Z,57.17
2018-12-08T03:08:19.929Z,58.97
2018-12-08T03:10:48.757Z,50.63
2018-12-08T03:13:17.907Z,57.33
2018-12-08T03:15:47.003Z,55.00
2018-12-08T03:18:16.201Z,54.57
2018-12-08T03:20:45.399Z,64.07
2018-12-08T03:23:14.500Z,62.57
2018-12-08T03:25:43.394Z,72.03
2018-12-08T03:28:12.224Z,92.40
2018-12-08T03:30:41.291Z,96.20
2018-12-08T03:33:10.124Z,78.47
2018-12-08T03:35:39.269Z,75.20
2018-12-08T03:38:08.098Z,78.77
2018-12-08T03:40:36.886Z,79.87
2018-12-08T03:43:06.154Z,79.23
2018-12-08T03:45:35.239Z,76.87
2018-12-08T03:48:04.149Z,79.60
2018-12-08T03:50:33.042Z,87.87
2018-12-08T03:53:02.229Z,91.97
2018-12-08T03:55:31.036Z,83.03
2018-12-08T03:58:00.197Z,85.63
2018-12-08T04:00:29.044Z,85.10
2018-12-08T04:02:57.885Z,98.80
2018-12-08T04:05:26.856Z,90.53
2018-12-08T04:07:56.075Z,82.60
2018-12-08T04:10:24.992Z,98.73
2018-12-08T04:12:54.052Z,79.90
2018-12-08T04:15:23.263Z,82.87
2018-12-08T04:17:52.460Z,86.00
2018-12-08T04:20:21.461Z,75.53
2018-12-08T04:22:50.366Z,79.10
2018-12-08T04:25:20.120Z,85.17
2018-12-08T04:27:49.027Z,70.73
2018-12-08T04:30:18.156Z,68.83
2018-12-08T04:32:47.336Z,67.43
2018-12-08T04:35:16.164Z,66.50
2018-12-08T04:37:45.329Z,72.07
2018-12-08T04:40:14.495Z,70.37
2018-12-08T04:42:43.620Z,73.27
2018-12-08T04:45:12.710Z,78.70
2018-12-08T04:47:41.941Z,70.33
2018-12-08T04:50:11.210Z,70.90
2018-12-08T04:52:40.245Z,74.20
2018-12-08T04:55:10.191Z,67.03
2018-12-08T04:57:39.484Z,74.90
2018-12-08T05:00:09.284Z,79.43
2018-12-08T05:02:38.502Z,65.87
2018-12-08T05:05:07.857Z,79.90
2018-12-08T05:07:36.703Z,86.50
2018-12-08T05:10:06.919Z,76.00
2018-12-08T05:12:35.743Z,74.87
2018-12-08T05:15:05.456Z,78.40
2018-12-08T05:17:34.664Z,63.67
2018-12-08T05:20:03.912Z,65.97
2018-12-08T05:22:33.323Z,65.80
2018-12-08T05:25:02.625Z,69.73
2018-12-08T05:27:31.721Z,76.27
2018-12-08T05:30:00.854Z,70.73
2018-12-08T05:32:30.064Z,67.93
2018-12-08T05:34:59.111Z,60.97
2018-12-08T05:37:28.358Z,68.23
2018-12-08T05:39:57.583Z,75.20
2018-12-08T05:42:26.506Z,83.13
2018-12-08T05:44:55.526Z,69.97
2018-12-08T05:47:24.616Z,70.27
2018-12-08T05:49:54.240Z,73.40
2018-12-08T05:52:23.578Z,75.37
2018-12-08T05:54:52.875Z,75.60
2018-12-08T05:57:22.144Z,67.90
2018-12-08T05:59:51.429Z,80.50
2018-12-08T06:02:20.639Z,72.47
2018-12-08T06:04:49.935Z,84.30
2018-12-08T06:07:19.033Z,67.00
2018-12-08T06:09:48.148Z,71.97
2018-12-08T06:12:17.223Z,74.13
2018-12-08T06:14:46.080Z,70.70
2018-12-08T06:17:15.102Z,71.63
2018-12-08T06:19:44.312Z,74.03
2018-12-08T06:22:13.425Z,81.97
2018-12-08T06:24:42.308Z,72.00
2018-12-08T06:27:53.006Z,61.57
2018-12-08T06:30:22.167Z,76.03
2018-12-08T06:32:51.675Z,51.93
2018-12-08T06:35:21.339Z,50.23
2018-12-08T06:37:50.231Z,47.37
2018-12-08T06:40:19.056Z,61.53
2018-12-08T06:42:48.252Z,44.43
2018-12-08T06:45:17.353Z,54.27
2018-12-08T06:47:46.442Z,53.80
2018-12-08T06:50:15.545Z,53.43
2018-12-08T06:52:44.456Z,57.30
2018-12-08T06:55:13.594Z,55.40
2018-12-08T06:57:42.462Z,57.00
2018-12-08T07:00:11.438Z,54.73
2018-12-08T07:02:40.264Z,60.37
2018-12-08T07:05:09.398Z,68.47
2018-12-08T07:07:38.324Z,61.33
2018-12-08T07:10:07.598Z,57.50
2018-12-08T07:12:36.868Z,58.10
2018-12-08T07:15:06.815Z,71.40
2018-12-08T07:17:36.119Z,57.67
2018-12-08T07:20:05.754Z,60.07
2018-12-08T07:22:34.857Z,56.63
2018-12-08T07:25:04.118Z,53.73
2018-12-08T07:27:33.462Z,53.03
2018-12-08T07:30:02.556Z,57.17
2018-12-08T07:32:38.647Z,55.20
2018-12-08T07:35:02.958Z,57.30
2018-12-08T07:37:31.891Z,55.70
2018-12-08T07:40:01.154Z,66.17
2018-12-08T07:42:30.455Z,59.90
2018-12-08T07:44:59.643Z,67.73
2018-12-08T07:47:30.275Z,57.67
2018-12-08T07:49:59.410Z,53.17
2018-12-08T07:52:28.572Z,58.40
2018-12-08T07:54:57.792Z,49.10
2018-12-08T07:57:26.976Z,58.83
2018-12-08T07:59:56.170Z,49.23
2018-12-08T08:02:25.063Z,51.57
2018-12-08T08:04:54.250Z,58.57
2018-12-08T08:07:23.138Z,50.13
2018-12-08T08:09:52.927Z,53.60
2018-12-08T08:12:22.159Z,65.50
2018-12-08T08:14:51.251Z,60.50
2018-12-08T08:17:20.338Z,65.03
2018-12-08T08:19:49.552Z,57.27
2018-12-08T08:22:18.633Z,63.43
2018-12-08T08:24:47.749Z,67.77
2018-12-08T08:27:16.932Z,58.37
2018-12-08T08:29:46.040Z,59.97
2018-12-08T08:32:15.231Z,61.37
2018-12-08T08:34:44.435Z,54.23
2018-12-08T08:37:13.956Z,53.57
2018-12-08T08:39:43.443Z,61.73
2018-12-08T08:42:12.322Z,54.57
2018-12-08T08:44:41.834Z,56.27
2018-12-08T08:47:10.962Z,57.23
2018-12-08T08:49:40.032Z,53.73
2018-12-08T08:52:09.551Z,60.23
2018-12-08T08:54:38.725Z,51.07
2018-12-08T08:57:08.204Z,56.17
2018-12-08T08:59:37.175Z,52.47
2018-12-08T09:02:06.634Z,59.03
2018-12-08T09:04:35.898Z,65.23
2018-12-08T09:07:05.058Z,53.67
2018-12-08T09:09:34.123Z,52.60
2018-12-08T09:12:03.343Z,57.27
2018-12-08T09:14:32.535Z,60.90
2018-12-08T09:17:01.377Z,57.00
2018-12-08T09:19:30.583Z,65.80
2018-12-08T09:21:59.702Z,61.63
2018-12-08T09:24:28.612Z,68.80
2018-12-08T09:26:57.432Z,62.97
2018-12-08T09:29:26.293Z,56.97
2018-12-08T09:31:55.370Z,66.53
2018-12-08T09:34:24.406Z,68.03
2018-12-08T09:36:53.284Z,66.33
2018-12-08T09:39:22.389Z,60.17
2018-12-08T09:41:51.567Z,60.13
2018-12-08T09:44:20.404Z,62.53
2018-12-08T09:46:49.982Z,63.93
2018-12-08T09:49:19.147Z,65.07
2018-12-08T09:51:48.440Z,58.77
2018-12-08T09:54:17.866Z,62.53
2018-12-08T09:56:47.051Z,59.13
2018-12-08T09:59:16.160Z,59.07
2018-12-08T10:01:45.166Z,65.40
2018-12-08T10:04:14.272Z,64.03
2018-12-08T10:06:43.385Z,63.07
2018-12-08T10:09:12.638Z,66.80
2018-12-08T10:11:50.034Z,62.97
2018-12-08T10:14:19.224Z,66.90
2018-12-08T10:16:49.242Z,59.10
2018-12-08T10:19:18.354Z,56.57
2018-12-08T10:21:47.373Z,52.47
2018-12-08T10:24:16.649Z,66.70
2018-12-08T10:26:46.051Z,57.03
2018-12-08T10:29:15.017Z,59.70
2018-12-08T10:31:44.578Z,61.53
2018-12-08T10:34:13.738Z,63.60
2018-12-08T10:36:42.822Z,62.23
2018-12-08T10:39:11.597Z,57.57
2018-12-08T10:41:40.952Z,59.43
2018-12-08T10:44:09.929Z,58.87
2018-12-08T10:46:39.116Z,60.37
2018-12-08T10:49:07.875Z,60.73
2018-12-08T10:51:36.699Z,54.13
2018-12-08T10:54:05.899Z,67.47
2018-12-08T10:56:34.983Z,59.57
2018-12-08T10:59:10.800Z,52.43
2018-12-08T11:01:45.265Z,65.53
2018-12-08T11:04:14.138Z,55.67
2018-12-08T11:06:43.472Z,70.47
2018-12-08T11:09:12.648Z,63.77
2018-12-08T11:11:41.742Z,51.27
2018-12-08T11:14:10.954Z,58.17
2018-12-08T11:16:40.216Z,51.10
2018-12-08T11:19:09.244Z,50.50
2018-12-08T11:21:38.103Z,46.40
2018-12-08T11:24:07.328Z,45.67
2018-12-08T11:26:36.420Z,49.13
2018-12-08T11:29:05.617Z,59.53
2018-12-08T11:31:34.703Z,52.17
2018-12-08T11:34:04.499Z,43.57
2018-12-08T11:36:33.711Z,44.07
2018-12-08T11:39:02.920Z,58.20
2018-12-08T11:41:31.842Z,52.33
2018-12-08T11:44:01.007Z,52.47
2018-12-08T11:46:30.413Z,48.03
2018-12-08T11:48:59.256Z,61.57
2018-12-08T11:51:28.134Z,52.93
2018-12-08T11:53:57.289Z,51.10
2018-12-08T11:56:26.767Z,53.43
2018-12-08T11:58:55.888Z,55.57
2018-12-08T12:01:24.975Z,56.73
2018-12-08T12:03:54.270Z,54.57
2018-12-08T12:06:23.794Z,60.63
2018-12-08T12:08:53.004Z,63.87
2018-12-08T12:11:21.923Z,57.93
2018-12-08T12:13:50.818Z,62.87
2018-12-08T12:16:20.536Z,67.03
2018-12-08T12:18:49.707Z,60.77
2018-12-08T12:21:18.677Z,59.70
2018-12-08T12:23:47.617Z,53.27
2018-12-08T12:26:16.776Z,59.07
2018-12-08T12:28:46.147Z,60.10
2018-12-08T12:31:15.006Z,57.73
2018-12-08T12:33:44.210Z,63.23
2018-12-08T12:36:13.476Z,70.33
2018-12-08T12:38:42.577Z,65.93
2018-12-08T12:41:11.571Z,66.30
2018-12-08T12:43:40.558Z,67.07
2018-12-08T12:46:09.351Z,62.10
2018-12-08T12:48:38.513Z,65.50
2018-12-08T12:51:07.445Z,60.60
2018-12-08T12:53:36.551Z,62.97
2018-12-08T12:56:05.463Z,64.93
2018-12-08T12:58:35.128Z,59.23
2018-12-08T13:01:04.030Z,60.87
2018-12-08T13:03:33.220Z,59.63
2018-12-08T13:06:02.408Z,66.30
2018-12-08T13:08:31.707Z,61.27
2018-12-08T13:11:00.836Z,64.87
2018-12-08T13:13:30.706Z,65.40
2018-12-08T13:16:00.667Z,65.70
2018-12-08T13:18:30.070Z,66.73
2018-12-08T13:20:59.171Z,60.60
2018-12-08T13:23:28.731Z,64.13
2018-12-08T13:25:57.603Z,57.30
2018-12-08T13:28:26.863Z,63.13
2018-12-08T13:30:56.094Z,57.80
2018-12-08T13:33:24.988Z,61.00
2018-12-08T13:35:56.946Z,57.90
2018-12-08T13:38:26.482Z,62.10
2018-12-08T13:40:55.723Z,53.97
2018-12-08T13:43:24.787Z,58.50
2018-12-08T13:45:54.157Z,52.97
2018-12-08T13:48:25.266Z,51.37
2018-12-08T13:50:54.545Z,59.73
2018-12-08T13:53:23.591Z,58.83
2018-12-08T13:55:52.577Z,58.50
2018-12-08T13:58:21.427Z,55.10
2018-12-08T14:00:50.277Z,51.00
2018-12-08T14:03:19.260Z,56.13
2018-12-08T14:05:48.368Z,57.60
2018-12-08T14:08:17.569Z,63.77
2018-12-08T14:10:46.672Z,70.50
2018-12-08T14:13:15.775Z,65.50
2018-12-08T14:15:44.778Z,71.20
2018-12-08T14:18:14.277Z,71.27
2018-12-08T14:20:43.617Z,82.77
2018-12-08T14:23:12.694Z,72.93
2018-12-08T14:25:42.024Z,77.97
2018-12-08T14:28:11.358Z,71.93
2018-12-08T14:30:40.148Z,62.37
2018-12-08T14:33:09.562Z,85.13
2018-12-08T14:35:39.211Z,74.10
2018-12-08T14:38:08.546Z,72.07
2018-12-08T14:40:37.529Z,79.83
2018-12-08T14:43:06.425Z,74.60
2018-12-08T14:45:35.785Z,66.47
2018-12-08T14:48:04.700Z,69.13
2018-12-08T14:50:33.852Z,85.87
2018-12-08T14:53:03.047Z,80.97
2018-12-08T14:55:32.010Z,90.17
2018-12-08T14:58:00.843Z,83.60
2018-12-08T15:00:30.025Z,70.10
2018-12-08T15:02:58.930Z,81.07
2018-12-08T15:05:27.951Z,80.77
2018-12-08T15:07:57.047Z,85.80
2018-12-08T15:10:26.073Z,79.97
2018-12-08T15:12:55.084Z,73.87
2018-12-08T15:15:23.887Z,97.77
2018-12-08T15:17:52.664Z,111.50
2018-12-08T15:20:21.475Z,96.50
2018-12-08T15:22:50.595Z,90.27
2018-12-08T15:25:19.759Z,94.43
2018-12-08T15:27:48.571Z,83.10
2018-12-08T15:30:17.617Z,94.40
2018-12-08T15:32:46.593Z,89.37
2018-12-08T15:35:15.419Z,86.93
2018-12-08T15:37:44.260Z,80.83
2018-12-08T15:40:13.411Z,85.80
2018-12-08T15:42:42.237Z,72.30
2018-12-08T15:45:11.943Z,119.13
2018-12-08T15:47:41.158Z,157.03
2018-12-08T15:50:11.105Z,158.07
2018-12-08T15:52:40.418Z,179.40
2018-12-08T15:55:09.480Z,134.33
2018-12-08T15:57:39.238Z,140.47
2018-12-08T16:00:11.910Z,166.83
2018-12-08T16:02:41.222Z,138.30
2018-12-08T16:05:11.020Z,137.00
2018-12-08T16:07:40.067Z,139.30
2018-12-08T16:10:10.360Z,151.50
2018-12-08T16:12:39.377Z,150.90
2018-12-08T16:15:10.102Z,167.50
2018-12-08T16:17:38.958Z,164.30
2018-12-08T16:20:11.044Z,168.47
2018-12-08T16:22:40.588Z,164.33
2018-12-08T16:25:09.772Z,153.10
2018-12-08T16:27:38.767Z,158.67
2018-12-08T16:30:09.300Z,149.40
2018-12-08T16:32:38.558Z,140.77
2018-12-08T16:35:08.257Z,155.83
2018-12-08T16:37:37.479Z,147.47
2018-12-08T16:40:07.291Z,142.33
2018-12-08T16:42:36.381Z,147.47
2018-12-08T16:45:06.602Z,161.57
2018-12-08T16:47:35.796Z,158.57
2018-12-08T16:50:05.104Z,151.50
2018-12-08T16:52:34.247Z,137.80
2018-12-08T16:55:03.216Z,151.47
2018-12-08T16:57:32.576Z,156.80
2018-12-08T17:00:01.788Z,160.40
2018-12-08T17:02:30.678Z,159.37
2018-12-08T17:04:59.792Z,159.53
2018-12-08T17:07:28.620Z,212.50
2018-12-08T17:09:57.796Z,204.83
2018-12-08T17:12:26.826Z,215.93
2018-12-08T17:14:55.723Z,201.30
2018-12-08T17:17:24.756Z,171.73
2018-12-08T17:19:53.867Z,167.50
2018-12-08T17:22:23.087Z,195.60
2018-12-08T17:24:52.270Z,192.83
2018-12-08T17:27:21.382Z,211.57
2018-12-08T17:29:50.550Z,210.73
2018-12-08T17:32:19.388Z,208.20
2018-12-08T17:34:48.310Z,216.77
2018-12-08T17:37:17.426Z,222.63
2018-12-08T17:39:46.526Z,234.17
2018-12-08T17:42:15.377Z,226.00
2018-12-08T17:44:44.831Z,223.70
2018-12-08T17:47:15.183Z,199.57
2018-12-08T17:49:44.019Z,211.47
2018-12-08T17:52:12.887Z,227.80
2018-12-08T17:54:42.116Z,228.40
2018-12-08T17:57:11.041Z,214.57
2018-12-08T17:59:40.087Z,219.67
2018-12-08T18:02:09.282Z,213.70
2018-12-08T18:04:38.390Z,211.17
2018-12-08T18:07:07.585Z,211.63
2018-12-08T18:09:36.463Z,178.00
2018-12-08T18:12:05.479Z,196.33
2018-12-08T18:14:34.559Z,169.00
2018-12-08T18:17:04.292Z,179.93
2018-12-08T18:19:33.192Z,180.20
2018-12-08T18:22:02.530Z,172.57
2018-12-08T18:24:31.403Z,175.40
2018-12-08T18:27:00.614Z,200.73
2018-12-08T18:29:30.411Z,211.47
2018-12-08T18:31:59.284Z,182.10
2018-12-08T18:34:28.306Z,188.03
2018-12-08T18:36:57.491Z,192.50
2018-12-08T18:39:26.467Z,171.67
2018-12-08T18:41:55.568Z,159.43
2018-12-08T18:44:24.496Z,184.17
2018-12-08T18:46:54.339Z,188.80
2018-12-08T18:49:23.155Z,216.83
2018-12-08T18:51:52.429Z,229.83
2018-12-08T18:54:21.524Z,237.77
2018-12-08T18:56:50.396Z,243.63
2018-12-08T18:59:19.576Z,242.37
2018-12-08T19:01:49.308Z,239.73
2018-12-08T19:04:18.179Z,240.63
2018-12-08T19:06:47.416Z,231.23
2018-12-08T19:09:16.515Z,273.37
2018-12-08T19:11:45.406Z,258.27
2018-12-08T19:14:15.414Z,248.30
2018-12-08T19:16:45.154Z,251.17
2018-12-08T19:19:14.044Z,256.57
2018-12-08T19:21:42.898Z,288.40
2018-12-08T19:24:11.878Z,252.00
2018-12-08T19:26:41.002Z,210.47
2018-12-08T19:29:10.104Z,214.37
2018-12-08T19:31:39.350Z,209.73
2018-12-08T19:34:08.461Z,221.93
2018-12-08T19:36:37.330Z,249.80
2018-12-08T19:39:07.764Z,368.53
2018-12-08T19:41:36.651Z,254.63
2018-12-08T19:44:05.816Z,206.43
2018-12-08T19:46:34.667Z,192.57
2018-12-08T19:49:03.981Z,177.23
2018-12-08T19:51:33.268Z,179.33
2018-12-08T19:54:02.398Z,188.13
2018-12-08T19:56:31.228Z,174.13
2018-12-08T19:59:00.083Z,182.43
2018-12-08T20:01:29.270Z,154.10
2018-12-08T20:03:58.104Z,175.63
2018-12-08T20:06:27.264Z,216.30
2018-12-08T20:08:56.307Z,263.90
2018-12-08T20:11:25.135Z,274.13
2018-12-08T20:13:54.340Z,231.47
2018-12-08T20:16:23.222Z,250.20
2018-12-08T20:18:52.528Z,229.90
2018-12-08T20:21:22.318Z,246.97
2018-12-08T20:23:51.281Z,245.70
2018-12-08T20:26:20.359Z,268.77
2018-12-08T20:28:49.454Z,252.20
2018-12-08T20:31:18.631Z,238.33
2018-12-08T20:33:47.981Z,219.90
2018-12-08T20:36:17.140Z,202.47
2018-12-08T20:38:46.016Z,190.50
2018-12-08T20:41:14.943Z,176.93
2018-12-08T20:43:43.905Z,179.63
2018-12-08T20:46:12.838Z,183.10
2018-12-08T20:48:41.727Z,189.57
2018-12-08T20:51:10.598Z,189.50
2018-12-08T20:53:39.665Z,187.57
2018-12-08T20:56:08.463Z,171.47
2018-12-08T20:58:37.480Z,174.70
2018-12-08T21:01:07.152Z,166.10
2018-12-08T21:03:36.037Z,160.90
2018-12-08T21:06:05.079Z,202.03
2018-12-08T21:08:34.107Z,176.40
2018-12-08T21:11:03.315Z,181.10
2018-12-08T21:13:32.225Z,175.13
2018-12-08T21:16:02.280Z,156.90
2018-12-08T21:18:31.658Z,175.60
2018-12-08T21:21:00.753Z,196.43
2018-12-08T21:23:30.115Z,198.23
2018-12-08T21:25:59.656Z,185.40
2018-12-08T21:28:28.511Z,203.07
2018-12-08T21:30:57.855Z,209.87
2018-12-08T21:33:27.057Z,202.67
2018-12-08T21:35:56.765Z,196.63
2018-12-08T21:38:25.606Z,185.03
2018-12-08T21:40:55.395Z,193.17
2018-12-08T21:43:24.177Z,196.00
2018-12-08T21:45:53.448Z,181.23
2018-12-08T21:48:22.411Z,182.40
2018-12-08T21:50:51.735Z,201.40
2018-12-08T21:53:20.555Z,169.23
2018-12-08T21:55:49.619Z,182.83
2018-12-08T21:58:18.427Z,178.37
2018-12-08T22:00:47.513Z,192.57
2018-12-08T22:03:16.519Z,164.10
2018-12-08T22:05:46.054Z,167.00
2018-12-08T22:08:15.203Z,171.00
2018-12-08T22:10:44.027Z,171.13
2018-12-08T22:13:13.042Z,162.63
2018-12-08T22:15:41.948Z,163.23
2018-12-08T22:18:10.899Z,177.00
2018-12-08T22:20:40.076Z,180.50
2018-12-08T22:23:08.883Z,171.03
2018-12-08T22:25:37.950Z,145.50
2018-12-08T22:28:06.748Z,151.90
2018-12-08T22:30:35.578Z,135.60
2018-12-08T22:33:04.471Z,153.93
2018-12-08T22:35:33.932Z,166.30
2018-12-08T22:38:02.847Z,152.23
2018-12-08T22:40:32.023Z,157.97
2018-12-08T22:43:01.219Z,158.53
2018-12-08T22:45:30.428Z,167.23
2018-12-08T22:47:59.511Z,147.43
2018-12-08T22:50:29.644Z,153.97
2018-12-08T22:52:58.842Z,155.47
2018-12-08T22:55:27.810Z,159.30
2018-12-08T22:57:56.935Z,149.80
2018-12-08T23:00:39.683Z,148.20
2018-12-08T23:03:08.844Z,150.67
2018-12-08T23:05:37.790Z,148.50
2018-12-08T23:08:07.244Z,134.87
2018-12-08T23:10:36.805Z,134.93
2018-12-08T23:13:06.081Z,130.53
2018-12-08T23:15:35.341Z,127.23
2018-12-08T23:18:04.806Z,142.57
2018-12-08T23:20:33.828Z,160.77
2018-12-08T23:23:02.735Z,144.93
2018-12-08T23:25:31.928Z,136.77
2018-12-08T23:28:01.223Z,136.37
2018-12-08T23:30:30.403Z,134.13
2018-12-08T23:32:59.432Z,152.37
2018-12-08T23:35:28.721Z,142.20
2018-12-08T23:37:57.749Z,159.43
2018-12-08T23:40:26.865Z,148.60
2018-12-08T23:42:55.908Z,156.73
2018-12-08T23:45:24.873Z,159.20
2018-12-08T23:47:53.876Z,163.03
2018-12-08T23:50:22.906Z,173.03
2018-12-08T23:52:51.915Z,149.53
2018-12-08T23:55:20.775Z,161.33
2018-12-08T23:57:49.628Z,149.60
